Terminal Aerodrome Forecast
Issued by NWS Louisville, KY

Home | Current Version | Previous Version | Text Only | Print | Product List | Glossary On
Versions: 1 2 3 4 5 6 7 8 9 10 11 12 13 14
246
FTUS43 KLMK 230534
TAFLEX
TAF
KLEX 230534Z 2306/2406 02012G18KT 6SM -SHRA OVC012
     FM230900 01012G17KT 6SM -SHRA OVC008
      TEMPO 2310/2314 1SM SHRA BR OVC005
     FM231400 35013G19KT 3SM -SHRA BR OVC007
     FM231800 35013G18KT 4SM BR VCSH OVC008
     FM240000 32013KT 5SM BR OVC006=

USA.gov is the U.S. government's official web portal to all federal, state and local government web resources and services.